Terminal Aerodrome Forecast
Issued by NWS

Home | Current Version | Previous Version | Text Only | Print | Product List | Glossary On
Versions: 1 2 3 4 5 6 7 8 9 10 11 12 13 14 15 16 17 18 19 20 21 22 23 24
000
FTPQ31 PGUM 182300
TAFPQ
TAF

PTKK 182328Z 1900/1924 05011KT P6SM VCSH FEW015 SCT120=

USA.gov is the U.S. government's official web portal to all federal, state and local government web resources and services.